Time;durP1;ratioP1;P1;durP2;ratioP2;P2;SDS_P1;SDS_P2;PMS_P1;PMS_P2;Temp;Humidity;BMP_temperature;BMP_pressure;BME280_temperature;BME280_humidity;BME280_pressure;Samples;Min_cycle;Max_cycle;Signal;HPM_P1;HPM_P2
2023/07/16 00:02:59;1409268.00;4.70;2473.52;0.00;0.00;0.62;;;;;24.10;13.50;;;;;;2274544;61;1254;-90
2023/07/16 00:05:26;324162.00;1.08;559.45;0.00;0.00;0.62;;;;;24.50;11.80;;;;;;2272723;61;1508;-89
2023/07/16 00:07:56;175484.00;0.58;303.71;0.00;0.00;0.62;;;;;24.60;13.50;;;;;;2272578;61;1409;-89
2023/07/16 00:13:08;1249102.00;4.16;2179.25;24896.00;0.08;43.75;;;;;25.00;9.10;;;;;;2270270;61;1359;-91
2023/07/16 00:23:17;1405933.00;4.69;2467.33;0.00;0.00;0.62;;;;;25.60;7.50;;;;;;2282619;61;1222;-89
2023/07/16 00:25:48;447527.00;1.49;771.53;65195.00;0.22;113.46;;;;;25.60;6.60;;;;;;2280892;61;1590;-91
2023/07/16 00:35:57;736430.00;2.45;1270.47;72853.00;0.24;126.69;;;;;25.30;10.00;;;;;;2277936;61;1246;-87
2023/07/16 00:40:53;640608.00;2.14;1104.39;67229.00;0.22;116.97;;;;;25.50;7.50;;;;;;2277852;61;1457;-89
2023/07/16 00:43:20;435557.00;1.45;750.94;105742.00;0.35;183.48;;;;;25.50;8.20;;;;;;2276164;61;1061;-88
2023/07/16 00:45:47;393739.00;1.31;679.04;123464.00;0.41;214.06;;;;;25.30;8.00;;;;;;2276093;61;1020;-88
2023/07/16 00:48:14;148219.00;0.49;256.74;623.00;0.00;1.70;;;;;25.50;8.30;;;;;;2276221;61;1045;-89
2023/07/16 00:50:43;446506.00;1.49;769.77;62077.00;0.21;108.07;;;;;25.40;7.90;;;;;;2276179;61;1993;-86
2023/07/16 00:53:10;658932.00;2.20;1136.09;66905.00;0.22;116.41;;;;;25.30;8.50;;;;;;2276170;61;974;-87
2023/07/16 00:58:09;1121659.00;3.74;1949.20;0.00;0.00;0.62;;;;;25.00;9.80;;;;;;2279007;61;1177;-89
2023/07/16 01:03:08;664393.00;2.21;1145.55;0.00;0.00;0.62;;;;;25.10;9.90;;;;;;2277916;61;1406;-89
2023/07/16 01:05:43;443979.00;1.48;765.43;30844.00;0.10;54.04;;;;;25.10;9.90;;;;;;2276060;61;1005;-86
2023/07/16 01:08:11;321875.00;1.07;555.52;0.00;0.00;0.62;;;;;25.00;9.90;;;;;;2285765;40;3627;-87
2023/07/16 01:10:40;541312.00;1.80;932.98;9835.00;0.03;17.66;;;;;24.90;10.90;;;;;;2275938;61;1993;-89
2023/07/16 01:13:09;456069.00;1.52;786.22;0.00;0.00;0.62;;;;;24.40;9.40;;;;;;2276024;61;1301;-89
2023/07/16 01:15:36;258109.00;0.86;445.90;0.00;0.00;0.62;;;;;24.00;9.90;;;;;;2276063;61;924;-86
2023/07/16 01:18:04;211766.00;0.71;366.17;0.00;0.00;0.62;;;;;23.70;11.90;;;;;;2276029;61;1569;-87
2023/07/16 01:20:31;304626.00;1.02;525.87;0.00;0.00;0.62;;;;;23.40;11.20;;;;;;2276186;61;970;-85
2023/07/16 01:23:38;521319.00;1.74;898.54;0.00;0.00;0.62;;;;;23.10;11.70;;;;;;2276023;61;1298;-85
2023/07/16 01:26:20;0.00;0.00;0.62;0.00;0.00;0.62;;;;;22.90;10.80;;;;;;2275285;61;1746;-87
2023/07/16 01:29:17;175560.00;0.59;303.84;44777.00;0.15;78.15;;;;;23.20;9.50;;;;;;2276214;61;1050;-86
2023/07/16 01:31:47;332651.00;1.11;574.04;45604.00;0.15;79.58;;;;;23.30;8.60;;;;;;2275965;61;2467;-87
2023/07/16 01:34:15;65856.00;0.22;114.60;0.00;0.00;0.62;;;;;23.40;8.20;;;;;;2276028;61;1109;-86
2023/07/16 01:36:44;106657.00;0.36;185.06;15500.00;0.05;27.48;;;;;23.50;7.70;;;;;;2276008;61;1015;-84
2023/07/16 01:39:11;143452.00;0.48;248.52;0.00;0.00;0.62;;;;;23.70;6.70;;;;;;2276046;61;988;-87
2023/07/16 01:41:38;133594.00;0.45;231.53;0.00;0.00;0.62;;;;;23.80;6.50;;;;;;2276082;61;1385;-86
2023/07/16 01:44:05;208866.00;0.70;361.18;27240.00;0.09;47.81;;;;;23.90;6.60;;;;;;2276092;61;1094;-86
2023/07/16 01:46:32;401063.00;1.34;691.63;0.00;0.00;0.62;;;;;24.10;4.80;;;;;;2276011;61;1639;-85
2023/07/16 01:49:00;370791.00;1.24;639.60;0.00;0.00;0.62;;;;;24.00;5.20;;;;;;2276133;61;1139;-88
2023/07/16 01:51:27;220954.00;0.74;381.99;0.00;0.00;0.62;;;;;24.00;4.50;;;;;;2275861;61;2026;-87
2023/07/16 01:53:54;110576.00;0.37;191.82;0.00;0.00;0.62;;;;;23.80;4.90;;;;;;2276096;61;1105;-86
2023/07/16 01:56:21;156421.00;0.52;270.87;0.00;0.00;0.62;;;;;23.80;5.20;;;;;;2276040;61;963;-86
2023/07/16 01:58:48;203871.00;0.68;352.59;0.00;0.00;0.62;;;;;24.00;4.40;;;;;;2275965;61;1192;-86
2023/07/16 02:01:15;17275.00;0.06;30.55;0.00;0.00;0.62;;;;;24.20;3.70;;;;;;2275749;61;1291;-88
2023/07/16 02:03:42;400509.00;1.34;690.68;7993.00;0.03;14.47;;;;;24.30;3.30;;;;;;2275719;61;1122;-83
2023/07/16 02:06:10;460836.00;1.54;794.42;23697.00;0.08;41.67;;;;;24.60;3.00;;;;;;2275454;61;1162;-86
2023/07/16 02:08:37;415349.00;1.38;716.19;0.00;0.00;0.62;;;;;24.70;1.90;;;;;;2275467;61;1160;-86
2023/07/16 02:11:04;300823.00;1.00;519.33;0.00;0.00;0.62;;;;;24.80;1.20;;;;;;2275543;61;1994;-86
2023/07/16 02:13:31;346953.00;1.16;598.62;0.00;0.00;0.62;;;;;24.70;1.30;;;;;;2275647;61;1168;-87
2023/07/16 02:15:58;413157.00;1.38;712.42;10445.00;0.03;18.72;;;;;24.80;1.10;;;;;;2275774;61;1126;-86
2023/07/16 02:18:24;336078.00;1.12;579.93;0.00;0.00;0.62;;;;;24.70;1.10;;;;;;2275637;61;1150;-86
2023/07/16 02:20:51;290479.00;0.97;501.55;0.00;0.00;0.62;;;;;24.90;1.00;;;;;;2275351;61;1755;-84
2023/07/16 02:23:19;553119.00;1.84;953.34;115482.00;0.38;200.29;;;;;25.10;1.50;;;;;;2275635;61;1165;-85
2023/07/16 02:25:46;307321.00;1.02;530.50;0.00;0.00;0.62;;;;;25.10;2.00;;;;;;2275574;61;2300;-85
2023/07/16 02:28:13;347894.00;1.16;600.24;49893.00;0.17;87.00;;;;;25.10;1.00;;;;;;2275483;61;1074;-85
2023/07/16 02:30:42;296019.00;0.99;511.08;7377.00;0.02;13.40;;;;;25.60;1.00;;;;;;2275528;61;1996;-84
2023/07/16 02:33:09;310081.00;1.03;535.25;0.00;0.00;0.62;;;;;25.80;1.00;;;;;;2275761;61;2261;-86
2023/07/16 02:35:36;387803.00;1.29;668.84;11474.00;0.04;20.50;;;;;25.40;1.00;;;;;;2275635;61;1191;-86
2023/07/16 02:38:03;402737.00;1.34;694.51;14324.00;0.05;25.44;;;;;25.10;1.00;;;;;;2275538;61;2111;-85
2023/07/16 02:40:31;427429.00;1.42;736.96;0.00;0.00;0.62;;;;;25.20;1.00;;;;;;2275371;61;1129;-84
2023/07/16 02:42:58;668127.00;2.23;1152.01;66004.00;0.22;114.85;;;;;25.40;1.00;;;;;;2275406;61;1344;-86
2023/07/16 02:45:25;428142.00;1.43;738.19;0.00;0.00;0.62;;;;;25.60;1.00;;;;;;2275338;61;1113;-85
2023/07/16 02:47:52;195137.00;0.65;337.55;0.00;0.00;0.62;;;;;25.50;1.00;;;;;;2275417;61;1153;-84
2023/07/16 02:50:19;329801.00;1.10;569.14;30455.00;0.10;53.37;;;;;25.50;1.00;;;;;;2275311;61;2020;-85
2023/07/16 02:52:45;512594.00;1.71;883.51;0.00;0.00;0.62;;;;;25.40;1.00;;;;;;2275133;61;1268;-85
2023/07/16 02:55:12;393718.00;1.31;679.01;0.00;0.00;0.62;;;;;25.30;1.00;;;;;;2275184;61;1110;-85
2023/07/16 02:57:41;310035.00;1.03;535.17;0.00;0.00;0.62;;;;;25.20;1.00;;;;;;2275401;61;1162;-85
2023/07/16 03:00:09;178699.00;0.60;309.25;0.00;0.00;0.62;;;;;24.90;2.10;;;;;;2275102;61;1750;-84
2023/07/16 03:02:35;152006.00;0.51;263.26;0.00;0.00;0.62;;;;;25.00;1.00;;;;;;2275478;61;1388;-85
2023/07/16 03:05:03;150736.00;0.50;261.08;0.00;0.00;0.62;;;;;24.90;1.00;;;;;;2276165;61;1085;-84
2023/07/16 03:07:29;336417.00;1.12;580.52;0.00;0.00;0.62;;;;;24.90;1.00;;;;;;2276199;61;1125;-86
2023/07/16 03:09:56;250230.00;0.83;432.35;0.00;0.00;0.62;;;;;25.10;1.00;;;;;;2276437;61;1986;-86
2023/07/16 03:12:23;465935.00;1.55;803.20;3024.00;0.01;5.86;;;;;24.90;1.00;;;;;;2276433;61;1376;-85
2023/07/16 03:14:54;353857.00;1.18;610.49;11949.00;0.04;21.33;;;;;25.00;1.00;;;;;;2276313;61;1520;-84
2023/07/16 03:17:21;452602.00;1.51;780.26;49176.00;0.16;85.76;;;;;25.20;1.00;;;;;;2276154;61;1152;-85
2023/07/16 03:19:48;257202.00;0.86;444.34;0.00;0.00;0.62;;;;;24.90;1.70;;;;;;2276288;61;1082;-86
2023/07/16 03:22:15;263956.00;0.88;455.95;0.00;0.00;0.62;;;;;24.70;1.00;;;;;;2276144;61;1367;-85
2023/07/16 03:24:42;204428.00;0.68;353.55;0.00;0.00;0.62;;;;;24.90;1.00;;;;;;2276164;61;1138;-85
2023/07/16 03:27:09;331904.00;1.11;572.76;0.00;0.00;0.62;;;;;24.80;1.10;;;;;;2276179;61;2531;-85
2023/07/16 03:29:36;580423.00;1.93;1000.43;14244.00;0.05;25.30;;;;;24.50;2.70;;;;;;2276276;61;2439;-85
2023/07/16 03:32:05;365408.00;1.22;630.34;0.00;0.00;0.62;;;;;24.40;2.20;;;;;;2276179;61;2004;-84
2023/07/16 03:34:31;153335.00;0.51;265.55;0.00;0.00;0.62;;;;;24.50;2.30;;;;;;2276080;61;1104;-84
2023/07/16 03:36:58;409812.00;1.37;706.67;12254.00;0.04;21.85;;;;;24.80;1.00;;;;;;2276058;61;1129;-85
2023/07/16 03:39:25;327073.00;1.09;564.46;31192.00;0.10;54.65;;;;;24.80;1.00;;;;;;2276031;61;1172;-85
2023/07/16 03:41:52;412804.00;1.38;711.82;0.00;0.00;0.62;;;;;24.90;1.00;;;;;;2276032;61;1284;-85
2023/07/16 03:44:19;268113.00;0.89;463.10;0.00;0.00;0.62;;;;;24.90;1.00;;;;;;2275864;61;1086;-87
2023/07/16 03:46:46;508780.00;1.70;876.94;0.00;0.00;0.62;;;;;25.30;1.00;;;;;;2276584;61;1109;-86
2023/07/16 03:49:14;240817.00;0.80;416.16;221.00;0.00;1.00;;;;;25.00;1.00;;;;;;2276577;61;1093;-84
2023/07/16 03:51:41;196930.00;0.66;340.64;0.00;0.00;0.62;;;;;24.80;1.00;;;;;;2276478;61;2000;-86
2023/07/16 03:54:08;240093.00;0.80;414.91;0.00;0.00;0.62;;;;;24.10;1.00;;;;;;2276167;61;1086;-84
2023/07/16 03:56:35;382481.00;1.27;659.69;8668.00;0.03;15.64;;;;;24.00;2.60;;;;;;2276183;61;1128;-85
2023/07/16 03:59:01;259163.00;0.86;447.71;6122.00;0.02;11.23;;;;;24.00;1.30;;;;;;2276250;61;1145;-86
2023/07/16 04:01:28;346726.00;1.16;598.23;0.00;0.00;0.62;;;;;23.50;2.90;;;;;;2276065;61;1373;-87
2023/07/16 04:03:55;460094.00;1.53;793.15;0.00;0.00;0.62;;;;;23.40;3.10;;;;;;2275773;61;1177;-86
2023/07/16 04:06:23;297168.00;0.99;513.05;0.00;0.00;0.62;;;;;23.50;3.20;;;;;;2276093;61;1117;-83
2023/07/16 04:08:50;520065.00;1.73;896.38;11694.00;0.04;20.88;;;;;23.70;1.10;;;;;;2275876;61;1110;-85
2023/07/16 04:11:17;442798.00;1.48;763.40;12397.00;0.04;22.10;;;;;23.30;2.70;;;;;;2275752;61;1922;-88
2023/07/16 04:13:44;231877.00;0.77;400.78;11959.00;0.04;21.34;;;;;23.50;2.10;;;;;;2275697;61;1145;-86
2023/07/16 04:16:11;316796.00;1.06;546.79;0.00;0.00;0.62;;;;;23.70;2.20;;;;;;2275899;61;1086;-85
2023/07/16 04:18:37;312697.00;1.04;539.75;0.00;0.00;0.62;;;;;24.20;1.00;;;;;;2275870;61;1111;-86
2023/07/16 04:21:04;207090.00;0.69;358.13;0.00;0.00;0.62;;;;;24.10;1.00;;;;;;2275910;61;1278;-85
2023/07/16 04:23:32;232652.00;0.78;402.11;0.00;0.00;0.62;;;;;23.70;1.00;;;;;;2276278;61;1047;-86
2023/07/16 04:25:59;313246.00;1.04;540.69;0.00;0.00;0.62;;;;;23.30;1.80;;;;;;2276167;61;1120;-86
2023/07/16 04:28:26;383438.00;1.28;661.33;28848.00;0.10;50.59;;;;;23.30;2.30;;;;;;2276290;61;1092;-86
2023/07/16 04:30:53;371539.00;1.24;640.88;0.00;0.00;0.62;;;;;23.40;1.10;;;;;;2276254;61;1998;-86
2023/07/16 04:33:20;313440.00;1.04;541.02;0.00;0.00;0.62;;;;;23.30;2.20;;;;;;2276560;61;1109;-86
2023/07/16 04:35:47;284378.00;0.95;491.06;9960.00;0.03;17.88;;;;;23.20;2.00;;;;;;2276232;61;1175;-84
2023/07/16 04:38:14;153409.00;0.51;265.68;9811.00;0.03;17.62;;;;;23.20;1.00;;;;;;2276447;61;1170;-87
2023/07/16 04:40:42;258500.00;0.86;446.57;0.00;0.00;0.62;;;;;23.10;1.70;;;;;;2275983;61;928;-85
2023/07/16 04:43:09;195675.00;0.65;338.48;0.00;0.00;0.62;;;;;23.20;2.40;;;;;;2276237;61;1446;-84
2023/07/16 04:45:37;221148.00;0.74;382.32;0.00;0.00;0.62;;;;;23.60;2.30;;;;;;2276095;61;1148;-84
2023/07/16 04:48:04;203864.00;0.68;352.57;0.00;0.00;0.62;;;;;24.00;1.00;;;;;;2276011;61;1036;-85
2023/07/16 04:50:31;353462.00;1.18;609.81;20743.00;0.07;36.56;;;;;24.00;1.00;;;;;;2276074;61;1919;-84
2023/07/16 04:52:57;117418728.00;391.40;65575380.00;116890976.00;389.64;64694380.00;;;;;24.20;1.00;;;;;;2275865;61;1470;-84
2023/07/16 04:55:24;294673.00;0.98;508.76;0.00;0.00;0.62;;;;;24.40;1.00;;;;;;2276049;61;1121;-84
2023/07/16 04:57:53;399624.00;1.33;689.16;0.00;0.00;0.62;;;;;24.40;1.00;;;;;;2276301;61;1106;-84
2023/07/16 05:00:21;205262.00;0.68;354.98;0.00;0.00;0.62;;;;;24.50;1.00;;;;;;2276089;61;1115;-85
2023/07/16 05:02:49;298073.00;0.99;514.61;0.00;0.00;0.62;;;;;24.90;1.00;;;;;;2275839;61;1306;-83
2023/07/16 05:05:15;227223.00;0.76;392.77;0.00;0.00;0.62;;;;;25.00;1.00;;;;;;2276069;61;1145;-84
2023/07/16 05:07:42;94781.00;0.32;164.56;0.00;0.00;0.62;;;;;25.00;1.00;;;;;;2275974;61;1175;-85
2023/07/16 05:10:10;247166.00;0.82;427.08;33868.00;0.11;59.28;;;;;24.90;1.00;;;;;;2276178;61;1148;-86
2023/07/16 05:12:37;63996.00;0.21;111.38;0.00;0.00;0.62;;;;;24.80;1.00;;;;;;2276131;61;1951;-84
2023/07/16 05:15:06;559357.00;1.86;964.09;144715.00;0.48;250.70;;;;;24.40;1.00;;;;;;2276307;61;1107;-84
2023/07/16 05:17:33;194969.00;0.65;337.26;0.00;0.00;0.62;;;;;24.20;1.00;;;;;;2276416;61;1110;-84
2023/07/16 05:20:00;133482.00;0.44;231.33;0.00;0.00;0.62;;;;;24.30;1.00;;;;;;2276155;61;1150;-84
2023/07/16 05:22:26;276939.00;0.92;478.27;0.00;0.00;0.62;;;;;24.40;1.00;;;;;;2275979;61;1356;-86
2023/07/16 05:24:53;127093.00;0.42;220.32;0.00;0.00;0.62;;;;;24.00;1.00;;;;;;2276041;61;1220;-86
2023/07/16 05:27:20;120780.00;0.40;209.43;0.00;0.00;0.62;;;;;23.30;1.00;;;;;;2276242;61;1046;-86
2023/07/16 05:29:47;285292.00;0.95;492.64;0.00;0.00;0.62;;;;;23.20;1.00;;;;;;2275937;61;1075;-86
2023/07/16 05:32:16;183151.00;0.61;316.92;0.00;0.00;0.62;;;;;23.00;1.00;;;;;;2276060;61;1984;-87
2023/07/16 05:34:42;326848.00;1.09;564.07;22442.00;0.07;39.50;;;;;23.10;1.50;;;;;;2276146;61;1301;-85
2023/07/16 05:37:09;259023.00;0.86;447.47;21402.00;0.07;37.70;;;;;23.30;1.00;;;;;;2276212;61;1160;-84
2023/07/16 05:39:36;224896.00;0.75;388.77;41253.00;0.14;72.06;;;;;23.30;1.00;;;;;;2276030;61;1546;-84
2023/07/16 05:42:03;169260.00;0.56;292.99;0.00;0.00;0.62;;;;;23.30;1.00;;;;;;2276192;61;1407;-87
2023/07/16 05:44:30;302254.00;1.01;521.79;69660.00;0.23;121.17;;;;;23.40;1.00;;;;;;2276136;61;1055;-86
2023/07/16 05:46:57;144654.00;0.48;250.59;0.00;0.00;0.62;;;;;23.60;1.60;;;;;;2276093;61;1143;-84
2023/07/16 05:49:27;137792.00;0.46;238.76;0.00;0.00;0.62;;;;;24.10;1.00;;;;;;2276107;61;1048;-86
2023/07/16 05:51:55;730740.00;2.44;1260.59;111976.00;0.37;194.24;;;;;24.40;1.00;;;;;;2276090;61;1925;-86
2023/07/16 05:54:22;230158.00;0.77;397.82;0.00;0.00;0.62;;;;;24.90;1.00;;;;;;2276148;61;1137;-87
2023/07/16 05:56:49;334428.00;1.11;577.10;0.00;0.00;0.62;;;;;25.00;1.00;;;;;;2276126;61;1696;-87
2023/07/16 05:59:16;231052.00;0.77;399.36;0.00;0.00;0.62;;;;;25.10;1.00;;;;;;2276181;61;1117;-87
2023/07/16 06:01:43;322271.00;1.07;556.20;37559.00;0.13;65.66;;;;;24.80;1.00;;;;;;2276136;61;1274;-86
2023/07/16 06:04:10;82698.00;0.28;143.70;0.00;0.00;0.62;;;;;24.30;1.00;;;;;;2276151;61;1046;-86
2023/07/16 06:06:38;196858.00;0.66;340.52;0.00;0.00;0.62;;;;;24.60;1.00;;;;;;2276178;61;1109;-87
2023/07/16 06:09:05;309258.00;1.03;533.83;22233.00;0.07;39.14;;;;;24.80;1.00;;;;;;2276120;61;1161;-86
2023/07/16 06:11:32;293192.00;0.98;506.22;0.00;0.00;0.62;;;;;24.90;1.00;;;;;;2276026;61;1994;-85
2023/07/16 06:13:59;211418.00;0.70;365.58;0.00;0.00;0.62;;;;;24.60;1.00;;;;;;2276126;61;1155;-87
2023/07/16 06:16:26;249602.00;0.83;431.27;0.00;0.00;0.62;;;;;24.60;1.00;;;;;;2276046;61;2053;-87
2023/07/16 06:18:52;350488.00;1.17;604.70;0.00;0.00;0.62;;;;;24.40;1.00;;;;;;2276063;61;1083;-87
2023/07/16 06:21:19;338322.00;1.13;583.79;0.00;0.00;0.62;;;;;24.60;1.00;;;;;;2276115;61;1398;-86
2023/07/16 06:23:47;558418.00;1.86;962.47;137675.00;0.46;238.56;;;;;24.50;1.00;;;;;;2276208;61;1023;-87
2023/07/16 06:26:14;462261.00;1.54;796.87;20239.00;0.07;35.68;;;;;24.60;1.00;;;;;;2276111;61;1142;-87
2023/07/16 06:28:41;315345.00;1.05;544.30;0.00;0.00;0.62;;;;;24.40;1.00;;;;;;2276010;61;1727;-87
2023/07/16 06:31:08;635655.00;2.12;1095.83;40781.00;0.14;71.24;;;;;24.60;1.00;;;;;;2275889;61;2012;-88
2023/07/16 06:33:35;225493.00;0.75;389.79;0.00;0.00;0.62;;;;;24.60;1.00;;;;;;2275912;61;1076;-88
2023/07/16 06:36:01;262430.00;0.87;453.33;0.00;0.00;0.62;;;;;24.40;1.00;;;;;;2276150;61;1044;-86
2023/07/16 06:38:29;315742.00;1.05;544.98;0.00;0.00;0.62;;;;;24.80;1.00;;;;;;2276746;61;1126;-88
2023/07/16 06:40:58;218141.00;0.73;377.14;0.00;0.00;0.62;;;;;24.90;1.00;;;;;;2276707;61;1275;-87
2023/07/16 06:43:24;146782.00;0.49;254.26;0.00;0.00;0.62;;;;;24.90;1.00;;;;;;2276760;61;1051;-87
2023/07/16 06:45:51;226119.00;0.75;390.87;0.00;0.00;0.62;;;;;24.90;1.00;;;;;;2276825;61;1098;-87
2023/07/16 06:48:18;348221.00;1.16;600.80;67244.00;0.22;117.00;;;;;25.00;1.00;;;;;;2276758;61;1054;-85
2023/07/16 06:50:45;184429.00;0.61;319.12;0.00;0.00;0.62;;;;;24.90;1.00;;;;;;2276712;61;1429;-86
2023/07/16 06:53:12;115423.00;0.38;200.19;0.00;0.00;0.62;;;;;24.90;1.00;;;;;;2276635;61;2006;-86
2023/07/16 06:55:39;115821.00;0.39;200.87;0.00;0.00;0.62;;;;;25.30;1.00;;;;;;2276742;61;1063;-87
2023/07/16 06:58:11;191601.00;0.64;331.46;0.00;0.00;0.62;;;;;25.60;1.00;;;;;;2276708;61;1131;-86
2023/07/16 07:00:38;340482.00;1.13;587.50;0.00;0.00;0.62;;;;;25.80;1.00;;;;;;2276504;61;1141;-85
2023/07/16 07:03:05;196406.00;0.65;339.74;0.00;0.00;0.62;;;;;26.00;1.00;;;;;;2276670;61;1281;-88
2023/07/16 07:05:32;102604.00;0.34;178.07;0.00;0.00;0.62;;;;;26.00;1.00;;;;;;2276668;61;1540;-85
2023/07/16 07:07:59;305746.00;1.02;527.80;0.00;0.00;0.62;;;;;26.30;1.00;;;;;;2276756;61;1111;-87
2023/07/16 07:10:26;484946.00;1.62;835.91;12391.00;0.04;22.09;;;;;26.30;1.00;;;;;;2276760;61;1083;-86
2023/07/16 07:12:52;681762.00;2.27;1175.63;53022.00;0.18;92.41;;;;;26.80;1.00;;;;;;2276645;61;2009;-88
2023/07/16 07:15:21;383252.00;1.28;661.02;62839.00;0.21;109.38;;;;;28.10;1.00;;;;;;2276703;61;1183;-88
2023/07/16 07:17:48;359254.00;1.20;619.77;70522.00;0.24;122.66;;;;;29.70;1.00;;;;;;2276735;61;977;-86
2023/07/16 07:20:15;469175.00;1.56;808.77;96493.00;0.32;167.52;;;;;31.10;1.00;;;;;;2276684;61;1138;-86
2023/07/16 07:22:42;339562.00;1.13;585.92;79839.00;0.27;138.76;;;;;32.30;1.00;;;;;;2276634;61;1360;-87
2023/07/16 07:25:09;327725.00;1.09;565.58;64412.00;0.21;112.10;;;;;33.60;1.00;;;;;;2276694;61;919;-89
2023/07/16 07:27:36;345701.00;1.15;596.47;64398.00;0.21;112.08;;;;;33.50;1.00;;;;;;2276640;61;922;-88
2023/07/16 07:30:03;294422.00;0.98;508.33;62204.00;0.21;108.29;;;;;33.30;1.00;;;;;;2276639;61;1051;-87
2023/07/16 07:32:31;277941.00;0.93;480.00;56759.00;0.19;98.87;;;;;33.40;1.00;;;;;;2276518;61;1994;-88
2023/07/16 07:34:58;297559.00;0.99;513.72;60644.00;0.20;105.59;;;;;33.50;1.00;;;;;;2276575;61;1616;-88
2023/07/16 07:37:25;341541.00;1.14;589.32;60845.00;0.20;105.94;;;;;34.00;1.00;;;;;;2276604;61;996;-88
2023/07/16 07:39:53;257397.00;0.86;444.67;57399.00;0.19;99.98;;;;;34.40;1.00;;;;;;2276645;61;1111;-87
2023/07/16 07:42:20;311106.00;1.04;537.01;53876.00;0.18;93.89;;;;;35.40;1.00;;;;;;2276481;61;1388;-90
2023/07/16 07:44:47;585149.00;1.95;1008.58;158235.00;0.53;274.00;;;;;35.50;1.00;;;;;;2276610;61;999;-88
2023/07/16 07:47:14;218315.00;0.73;377.44;52644.00;0.18;91.76;;;;;35.30;1.00;;;;;;2276635;61;1098;-88
2023/07/16 07:49:42;240816.00;0.80;416.15;64131.00;0.21;111.62;;;;;34.90;1.00;;;;;;2276424;61;1100;-87
2023/07/16 07:52:09;565465.00;1.88;974.62;56577.00;0.19;98.56;;;;;34.70;1.00;;;;;;2276490;61;1927;-89
2023/07/16 07:54:36;380865.00;1.27;656.91;64177.00;0.21;111.70;;;;;34.60;1.00;;;;;;2276535;61;1102;-89
2023/07/16 07:57:04;309454.00;1.03;534.17;56199.00;0.19;97.91;;;;;35.10;1.00;;;;;;2276565;61;1046;-87
2023/07/16 07:59:32;333453.00;1.11;575.42;61652.00;0.21;107.33;;;;;35.70;1.00;;;;;;2276570;61;985;-87
2023/07/16 08:02:01;449714.00;1.50;775.29;0.00;0.00;0.62;;;;;36.10;1.00;;;;;;2276477;61;1706;-87
2023/07/16 08:04:29;713766.00;2.38;1231.12;54408.00;0.18;94.81;;;;;35.80;1.00;;;;;;2276763;61;1307;-88
2023/07/16 08:06:57;504297.00;1.68;869.22;56946.00;0.19;99.20;;;;;35.30;1.00;;;;;;2276750;61;1516;-88
2023/07/16 08:09:24;422389.00;1.41;728.30;52461.00;0.17;91.44;;;;;34.20;1.00;;;;;;2276678;61;1579;-88
2023/07/16 08:11:51;508283.00;1.69;876.09;48780.00;0.16;85.08;;;;;34.10;1.00;;;;;;2276564;61;1931;-88
2023/07/16 08:14:18;290954.00;0.97;502.37;62473.00;0.21;108.75;;;;;34.30;1.00;;;;;;2276700;61;971;-88
2023/07/16 08:16:45;248063.00;0.83;428.62;58888.00;0.20;102.55;;;;;35.00;1.00;;;;;;2276722;61;1146;-88
2023/07/16 08:19:11;282904.00;0.94;488.53;54824.00;0.18;95.53;;;;;34.10;1.00;;;;;;2276700;61;1126;-88
2023/07/16 08:21:38;384242.00;1.28;662.72;59397.00;0.20;103.43;;;;;34.80;1.00;;;;;;2276649;61;1325;-88
2023/07/16 08:24:07;276456.00;0.92;477.44;44434.00;0.15;77.56;;;;;35.00;1.00;;;;;;2276552;61;1071;-87
2023/07/16 08:26:34;292522.00;0.98;505.07;57885.00;0.19;100.82;;;;;35.00;1.00;;;;;;2276363;61;1042;-87
2023/07/16 08:29:02;249239.00;0.83;430.64;59164.00;0.20;103.03;;;;;33.90;1.00;;;;;;2276492;61;1001;-87
2023/07/16 08:31:29;515183.00;1.72;887.97;83503.00;0.28;145.09;;;;;34.40;1.00;;;;;;2276340;61;2002;-87
2023/07/16 08:33:56;320968.00;1.07;553.96;62065.00;0.21;108.05;;;;;32.70;1.00;;;;;;2276408;61;1196;-87
2023/07/16 08:36:22;365624.00;1.22;630.72;55025.00;0.18;95.88;;;;;32.60;1.00;;;;;;2276440;61;1122;-90
2023/07/16 08:38:49;272765.00;0.91;471.10;53861.00;0.18;93.86;;;;;33.00;1.00;;;;;;2276403;61;1089;-88
2023/07/16 08:41:18;406048.00;1.35;700.20;69059.00;0.23;120.13;;;;;33.30;1.00;;;;;;2276389;61;1307;-88
2023/07/16 08:43:47;290910.00;0.97;502.29;54316.00;0.18;94.65;;;;;33.00;1.00;;;;;;2276347;61;1175;-86
2023/07/16 08:46:14;156852.00;0.52;271.62;0.00;0.00;0.62;;;;;32.80;1.00;;;;;;2276307;61;1154;-86
2023/07/16 08:48:41;174383.00;0.58;301.82;0.00;0.00;0.62;;;;;32.80;1.00;;;;;;2276379;61;1099;-87
2023/07/16 08:51:11;156424.00;0.52;270.88;0.00;0.00;0.62;;;;;32.60;1.00;;;;;;2276268;61;1434;-87
2023/07/16 08:53:38;80868.00;0.27;140.54;0.00;0.00;0.62;;;;;32.70;1.00;;;;;;2276293;61;1924;-87
2023/07/16 08:56:05;182690.00;0.61;316.12;0.00;0.00;0.62;;;;;33.20;1.00;;;;;;2276263;61;1106;-88
2023/07/16 08:58:33;324757.00;1.08;560.47;42541.00;0.14;74.28;;;;;32.50;1.00;;;;;;2276205;61;1174;-87
2023/07/16 09:01:02;220811.00;0.74;381.74;14090.00;0.05;25.03;;;;;32.40;1.00;;;;;;2276248;61;1402;-86
2023/07/16 09:03:29;156071.00;0.52;270.27;20730.00;0.07;36.53;;;;;31.80;1.00;;;;;;2276352;61;1010;-88
2023/07/16 09:05:56;364669.00;1.22;629.07;51660.00;0.17;90.06;;;;;31.30;1.00;;;;;;2276345;61;1134;-87
2023/07/16 09:08:28;238550.00;0.80;412.26;0.00;0.00;0.62;;;;;31.70;1.00;;;;;;2276280;61;948;-87
2023/07/16 09:10:56;119309.00;0.40;206.89;0.00;0.00;0.62;;;;;31.90;1.00;;;;;;2276284;61;1391;-88
2023/07/16 09:13:26;150648.00;0.50;260.92;0.00;0.00;0.62;;;;;31.50;1.00;;;;;;2276215;61;1907;-88
2023/07/16 09:15:55;161844.00;0.54;280.22;0.00;0.00;0.62;;;;;31.90;1.00;;;;;;2276227;61;1054;-87
2023/07/16 09:18:23;330491.00;1.10;570.33;35440.00;0.12;62.00;;;;;32.80;1.00;;;;;;2276345;61;910;-86
2023/07/16 09:20:54;117424.00;0.39;203.64;0.00;0.00;0.62;;;;;32.90;1.00;;;;;;2276239;61;1323;-88
2023/07/16 09:23:21;209718.00;0.70;362.65;2803.00;0.01;5.48;;;;;33.60;1.00;;;;;;2276243;61;1122;-87
2023/07/16 09:25:51;358098.00;1.19;617.78;7599.00;0.03;13.79;;;;;33.00;1.00;;;;;;2276239;61;1006;-87
2023/07/16 09:28:20;284734.00;0.95;491.68;0.00;0.00;0.62;;;;;32.20;1.00;;;;;;2276231;61;1130;-88
2023/07/16 09:30:48;523550.00;1.75;902.38;74.00;0.00;0.75;;;;;31.50;1.00;;;;;;2276158;61;1310;-88
2023/07/16 09:33:18;167791.00;0.56;290.46;0.00;0.00;0.62;;;;;30.90;1.00;;;;;;2276200;61;1992;-87
2023/07/16 09:35:45;436076.00;1.45;751.83;0.00;0.00;0.62;;;;;30.90;1.00;;;;;;2276133;61;1012;-87
2023/07/16 09:38:12;254183.00;0.85;439.14;0.00;0.00;0.62;;;;;30.80;1.00;;;;;;2276181;61;973;-87
2023/07/16 09:40:42;517095.00;1.72;891.26;0.00;0.00;0.62;;;;;30.90;1.00;;;;;;2276168;61;1597;-87
2023/07/16 09:43:10;288072.00;0.96;497.41;0.00;0.00;0.62;;;;;30.90;1.00;;;;;;2275732;61;1213;-86
2023/07/16 09:45:37;443158.00;1.48;764.01;6661.00;0.02;12.16;;;;;30.70;1.00;;;;;;2274071;61;945;-87
2023/07/16 09:48:04;215912.00;0.72;373.31;0.00;0.00;0.62;;;;;30.30;1.00;;;;;;2276284;61;989;-87
2023/07/16 09:50:34;188771.00;0.63;326.59;0.00;0.00;0.62;;;;;30.00;1.00;;;;;;2276354;61;1140;-87
2023/07/16 09:53:03;204547.00;0.68;353.75;0.00;0.00;0.62;;;;;30.60;1.00;;;;;;2276155;61;1923;-90
2023/07/16 09:55:33;211480.00;0.70;365.68;0.00;0.00;0.62;;;;;30.30;1.00;;;;;;2276114;61;1778;-87
2023/07/16 09:58:02;248686.00;0.83;429.69;63875.00;0.21;111.18;;;;;30.00;1.00;;;;;;2276240;61;981;-87
2023/07/16 10:00:32;461296.00;1.54;795.21;14986.00;0.05;26.59;;;;;29.80;1.00;;;;;;2275233;61;1050;-84
2023/07/16 10:02:59;116201.00;0.39;201.53;0.00;0.00;0.62;;;;;30.00;1.00;;;;;;2271706;61;1274;-86
2023/07/16 10:05:27;113093.00;0.38;196.17;0.00;0.00;0.62;;;;;30.50;1.00;;;;;;2273610;61;1148;-85
2023/07/16 10:07:59;320516.00;1.07;553.19;0.00;0.00;0.62;;;;;30.90;1.00;;;;;;2276065;61;1140;-87
2023/07/16 10:10:28;166348.00;0.55;287.98;0.00;0.00;0.62;;;;;30.70;1.00;;;;;;2275219;61;1067;-85
2023/07/16 10:12:59;710385.00;2.37;1225.25;104581.00;0.35;181.48;;;;;30.90;1.00;;;;;;2273953;61;1992;-86
2023/07/16 10:15:28;789578.00;2.63;1362.95;59154.00;0.20;103.01;;;;;30.50;1.00;;;;;;2273796;61;1775;-86